Time;durP1;ratioP1;P1;durP2;ratioP2;P2;SDS_P1;SDS_P2;PMS_P1;PMS_P2;Temp;Humidity;BMP_temperature;BMP_pressure;BME280_temperature;BME280_humidity;BME280_pressure;Samples;Min_cycle;Max_cycle;Signal;HPM_P1;HPM_P2
2023/04/03 00:01:14;;;;;;;;;;;;;;;18.43;68.57;100199.69;7399007;19;2078;-43
2023/04/03 00:03:42;;;;;;;;;;;;;;;18.44;68.41;100207.56;7401314;19;1660;-43
2023/04/03 00:06:11;;;;;;;;;;;;;;;18.45;68.58;100195.88;7402549;19;1034;-43
2023/04/03 00:08:42;;;;;;;;;;;;;;;18.38;68.42;100193.91;7400102;19;1792;-43
2023/04/03 00:11:11;;;;;;;;;;;;;;;18.42;68.30;100189.94;7400995;19;1818;-43
2023/04/03 00:13:40;;;;;;;;;;;;;;;18.40;68.08;100192.81;7400952;19;2039;-43
2023/04/03 00:16:09;;;;;;;;;;;;;;;18.39;68.77;100204.47;7400396;19;2011;-43
2023/04/03 00:18:38;;;;;;;;;;;;;;;18.41;68.08;100223.91;7397675;19;2104;-43
2023/04/03 00:21:07;;;;;;;;;;;;;;;18.40;68.40;100205.31;7396971;19;1938;-44
2023/04/03 00:23:35;;;;;;;;;;;;;;;18.41;68.42;100212.38;7402053;19;978;-43
2023/04/03 00:26:06;;;;;;;;;;;;;;;18.34;67.84;100201.38;7400387;19;1735;-43
2023/04/03 00:28:34;;;;;;;;;;;;;;;18.35;68.13;100202.25;7400585;19;2098;-43
2023/04/03 00:31:03;;;;;;;;;;;;;;;18.36;68.52;100219.97;7401254;19;2107;-43
2023/04/03 00:33:31;;;;;;;;;;;;;;;18.31;68.57;100208.88;7401329;19;1044;-43
2023/04/03 00:35:59;;;;;;;;;;;;;;;18.25;68.84;100210.31;7400554;19;2224;-43
2023/04/03 00:38:28;;;;;;;;;;;;;;;18.25;68.61;100205.78;7398570;19;2321;-43
2023/04/03 00:40:56;;;;;;;;;;;;;;;18.32;68.46;100194.50;7399684;19;2265;-43
2023/04/03 00:43:28;;;;;;;;;;;;;;;18.34;68.15;100205.91;7400148;19;1831;-43
2023/04/03 00:45:57;;;;;;;;;;;;;;;18.28;68.40;100199.28;7400062;19;1907;-43
2023/04/03 00:48:28;;;;;;;;;;;;;;;18.25;68.45;100210.31;7399638;19;1620;-43
2023/04/03 00:50:57;;;;;;;;;;;;;;;18.29;68.18;100204.50;7399613;19;2008;-43
2023/04/03 00:53:27;;;;;;;;;;;;;;;18.24;68.25;100195.22;7399409;19;1112;-43
2023/04/03 00:55:57;;;;;;;;;;;;;;;18.24;68.34;100197.88;7399901;19;2097;-43
2023/04/03 00:58:31;;;;;;;;;;;;;;;18.26;68.42;100211.97;7398733;19;2768;-43
2023/04/03 01:01:00;;;;;;;;;;;;;;;18.18;68.13;100212.69;7401273;19;1665;-43
2023/04/03 01:03:31;;;;;;;;;;;;;;;18.23;68.38;100229.16;7400247;19;1611;-43
2023/04/03 01:05:59;;;;;;;;;;;;;;;18.16;68.60;100222.69;7400006;19;2169;-43
2023/04/03 01:08:28;;;;;;;;;;;;;;;18.09;69.06;100230.47;7398324;19;2240;-43
2023/04/03 01:10:56;;;;;;;;;;;;;;;18.16;68.62;100222.69;7398464;19;1740;-43
2023/04/03 01:13:29;;;;;;;;;;;;;;;18.11;68.91;100208.06;7398316;19;2099;-43
2023/04/03 01:15:57;;;;;;;;;;;;;;;18.14;68.51;100218.47;7397569;19;1750;-43
2023/04/03 01:18:27;;;;;;;;;;;;;;;18.13;68.74;100230.19;7396749;19;1933;-43
2023/04/03 01:21:13;;;;;;;;;;;;;;;18.13;68.49;100231.03;7398011;19;1952;-43
2023/04/03 01:23:46;;;;;;;;;;;;;;;18.09;69.01;100217.06;7399909;19;1653;-43
2023/04/03 01:26:14;;;;;;;;;;;;;;;18.11;68.15;100216.94;7398172;19;2108;-43
2023/04/03 01:28:45;;;;;;;;;;;;;;;18.11;68.45;100214.28;7406859;19;2111;-43
2023/04/03 01:31:18;;;;;;;;;;;;;;;18.08;68.58;100222.56;7403394;19;2094;-43
2023/04/03 01:33:48;;;;;;;;;;;;;;;18.06;68.46;100221.88;7406353;19;1883;-43
2023/04/03 01:36:18;;;;;;;;;;;;;;;18.01;68.79;100227.66;7407183;19;1623;-43
2023/04/03 01:38:46;;;;;;;;;;;;;;;18.05;68.70;100212.16;7405194;19;1856;-43
2023/04/03 01:41:16;;;;;;;;;;;;;;;18.01;68.39;100218.78;7406020;19;2237;-43
2023/04/03 01:43:45;;;;;;;;;;;;;;;17.97;69.22;100218.22;7405564;19;2098;-43
2023/04/03 01:46:14;;;;;;;;;;;;;;;18.60;67.57;100209.66;7406634;19;1954;-44
2023/04/03 01:48:45;;;;;;;;;;;;;;;19.53;64.66;100200.69;7402879;19;1851;-43
2023/04/03 01:51:16;;;;;;;;;;;;;;;20.09;63.00;100186.09;7404232;19;2160;-43
2023/04/03 01:53:44;;;;;;;;;;;;;;;20.19;63.24;100197.59;7403083;19;2049;-43
2023/04/03 01:56:13;;;;;;;;;;;;;;;19.98;63.96;100200.63;7405154;19;1972;-43
2023/04/03 01:58:41;;;;;;;;;;;;;;;20.10;63.55;100192.34;7403198;19;1998;-44
2023/04/03 02:01:10;;;;;;;;;;;;;;;20.15;63.20;100204.25;7405135;19;1670;-43
2023/04/03 02:03:38;;;;;;;;;;;;;;;20.27;63.06;100210.22;7404974;19;2446;-43
2023/04/03 02:06:06;;;;;;;;;;;;;;;20.35;63.29;100209.44;7403164;19;1779;-44
2023/04/03 02:08:37;;;;;;;;;;;;;;;20.33;62.89;100206.06;7404858;19;1879;-43
2023/04/03 02:11:06;;;;;;;;;;;;;;;20.35;63.04;100212.13;7404482;19;2091;-44
2023/04/03 02:13:35;;;;;;;;;;;;;;;20.37;63.12;100213.66;7404720;19;2383;-44
2023/04/03 02:16:09;;;;;;;;;;;;;;;20.41;62.98;100206.97;7403670;19;2030;-44
2023/04/03 02:18:38;;;;;;;;;;;;;;;20.44;62.98;100221.91;7402253;19;1849;-44
2023/04/03 02:21:06;;;;;;;;;;;;;;;20.45;62.86;100224.47;7404240;19;2112;-44
2023/04/03 02:23:35;;;;;;;;;;;;;;;20.60;62.50;100235.47;7405011;19;1826;-44
2023/04/03 02:26:11;;;;;;;;;;;;;;;20.57;62.56;100221.47;7404989;19;1955;-44
2023/04/03 02:28:40;;;;;;;;;;;;;;;20.63;62.86;100243.22;7404304;19;1823;-43
2023/04/03 02:31:10;;;;;;;;;;;;;;;20.59;62.68;100231.13;7404155;19;1835;-43
2023/04/03 02:33:39;;;;;;;;;;;;;;;20.57;62.46;100238.47;7402972;19;2125;-43
2023/04/03 02:36:08;;;;;;;;;;;;;;;20.52;62.89;100235.41;7404100;19;2121;-44
2023/04/03 02:38:37;;;;;;;;;;;;;;;20.45;62.84;100239.69;7400435;19;1860;-43
2023/04/03 02:41:06;;;;;;;;;;;;;;;20.50;62.81;100234.72;7405052;19;1026;-44
2023/04/03 02:43:37;;;;;;;;;;;;;;;20.48;63.01;100234.03;7403670;19;2300;-44
2023/04/03 02:46:05;;;;;;;;;;;;;;;20.51;63.00;100254.34;7403872;19;2081;-43
2023/04/03 02:48:34;;;;;;;;;;;;;;;20.50;62.63;100239.25;7403326;19;1995;-44
2023/04/03 02:51:02;;;;;;;;;;;;;;;20.44;63.18;100240.72;7403333;19;1911;-44
2023/04/03 02:53:30;;;;;;;;;;;;;;;20.51;63.07;100233.69;7403167;19;1865;-44
2023/04/03 02:55:58;;;;;;;;;;;;;;;20.44;63.41;100238.03;7402081;19;1953;-44
2023/04/03 02:58:27;;;;;;;;;;;;;;;20.44;62.99;100238.03;7402750;19;1964;-43
2023/04/03 03:00:58;;;;;;;;;;;;;;;20.48;62.94;100243.94;7402296;19;1042;-44
2023/04/03 03:03:26;;;;;;;;;;;;;;;20.41;63.31;100233.84;7404471;19;1936;-43
2023/04/03 03:06:03;;;;;;;;;;;;;;;20.45;63.10;100248.63;7403356;19;2185;-43
2023/04/03 03:08:31;;;;;;;;;;;;;;;20.45;62.70;100245.94;7403313;19;1717;-43
2023/04/03 03:10:59;;;;;;;;;;;;;;;20.49;63.16;100241.06;7402805;19;1916;-44
2023/04/03 03:13:28;;;;;;;;;;;;;;;20.48;62.69;100257.38;7401800;19;1703;-44
2023/04/03 03:15:59;;;;;;;;;;;;;;;20.47;62.87;100243.06;7403719;19;2066;-44
2023/04/03 03:18:27;;;;;;;;;;;;;;;20.52;62.86;100253.38;7402177;19;1860;-44
2023/04/03 03:20:56;;;;;;;;;;;;;;;20.52;62.74;100256.88;7397791;19;1794;-44
2023/04/03 03:23:25;;;;;;;;;;;;;;;20.51;62.87;100260.56;7403142;19;1816;-43
2023/04/03 03:25:57;;;;;;;;;;;;;;;20.52;62.86;100256.88;7403130;19;1022;-44
2023/04/03 03:28:25;;;;;;;;;;;;;;;20.60;62.95;100259.66;7403844;19;1028;-44
2023/04/03 03:30:53;;;;;;;;;;;;;;;20.57;62.68;100265.31;7402954;19;2150;-43
2023/04/03 03:33:25;;;;;;;;;;;;;;;20.54;62.81;100260.25;7399301;19;2680;-44
2023/04/03 03:35:53;;;;;;;;;;;;;;;20.58;62.81;100267.00;7401357;19;1821;-44
2023/04/03 03:38:22;;;;;;;;;;;;;;;20.59;62.93;100263.34;7401729;19;2081;-44
2023/04/03 03:40:51;;;;;;;;;;;;;;;20.58;62.52;100275.06;7401251;19;1912;-43
2023/04/03 03:43:20;;;;;;;;;;;;;;;20.59;62.37;100266.03;7401100;19;1808;-43
2023/04/03 03:45:52;;;;;;;;;;;;;;;20.60;62.71;100256.97;7400671;19;1844;-44
2023/04/03 03:48:20;;;;;;;;;;;;;;;20.61;62.56;100253.28;7400065;19;2035;-43
2023/04/03 03:50:52;;;;;;;;;;;;;;;20.62;62.38;100263.03;7402087;19;1608;-43
2023/04/03 03:53:20;;;;;;;;;;;;;;;20.60;62.43;100265.03;7400872;19;2136;-44
2023/04/03 03:55:48;;;;;;;;;;;;;;;20.61;62.59;100255.97;7401512;19;1947;-43
2023/04/03 03:58:16;;;;;;;;;;;;;;;20.55;62.79;100256.59;7401214;19;2037;-44
2023/04/03 04:00:45;;;;;;;;;;;;;;;20.33;63.15;100254.41;7399181;19;1977;-44
2023/04/03 04:03:13;;;;;;;;;;;;;;;19.91;64.52;100247.84;7401462;19;2122;-44
2023/04/03 04:05:41;;;;;;;;;;;;;;;19.66;65.38;100239.56;7400659;19;2656;-44
2023/04/03 04:08:12;;;;;;;;;;;;;;;19.58;64.86;100249.38;7400416;19;1967;-44
2023/04/03 04:10:41;;;;;;;;;;;;;;;19.47;65.26;100242.38;7400835;19;1792;-43
2023/04/03 04:13:09;;;;;;;;;;;;;;;19.49;65.62;100237.69;7399546;19;1709;-43
2023/04/03 04:15:37;;;;;;;;;;;;;;;19.45;65.03;100231.78;7401068;19;2050;-43
2023/04/03 04:18:06;;;;;;;;;;;;;;;19.21;65.33;100231.53;7401174;19;2084;-43
2023/04/03 04:20:34;;;;;;;;;;;;;;;19.22;65.75;100233.22;7399597;19;1887;-43
2023/04/03 04:23:02;;;;;;;;;;;;;;;19.57;65.37;100235.09;7401456;19;2094;-43
2023/04/03 04:25:33;;;;;;;;;;;;;;;19.98;63.96;100248.09;7398856;19;2179;-44
2023/04/03 04:28:02;;;;;;;;;;;;;;;21.25;60.40;100250.25;7399373;19;2002;-43
2023/04/03 04:30:31;;;;;;;;;;;;;;;21.86;58.21;100256.28;7399315;19;1827;-43
2023/04/03 04:32:59;;;;;;;;;;;;;;;21.57;59.10;100264.81;7400200;19;2158;-44
2023/04/03 04:35:28;;;;;;;;;;;;;;;20.79;60.93;100260.44;7401222;19;2016;-43
2023/04/03 04:37:56;;;;;;;;;;;;;;;20.40;62.52;100285.00;7400193;19;1819;-43
2023/04/03 04:40:24;;;;;;;;;;;;;;;19.84;64.20;100273.63;7398103;19;1991;-43
2023/04/03 04:42:55;;;;;;;;;;;;;;;19.64;64.98;100267.53;7398135;19;1905;-43
2023/04/03 04:45:24;;;;;;;;;;;;;;;19.53;65.20;100271.25;7399464;19;1822;-43
2023/04/03 04:47:52;;;;;;;;;;;;;;;19.41;65.50;100278.66;7401190;19;2051;-43
2023/04/03 04:50:21;;;;;;;;;;;;;;;19.23;65.96;100285.81;7400112;19;1649;-44
2023/04/03 04:52:49;;;;;;;;;;;;;;;19.41;65.46;100267.94;7398771;19;1507;-43
2023/04/03 04:55:17;;;;;;;;;;;;;;;19.42;65.46;100264.28;7395612;19;2017;-43
2023/04/03 04:57:46;;;;;;;;;;;;;;;19.38;65.85;100267.41;7398009;19;1779;-44
2023/04/03 05:00:18;;;;;;;;;;;;;;;19.38;66.03;100260.22;7397457;19;1911;-44
2023/04/03 05:02:46;;;;;;;;;;;;;;;19.25;65.80;100268.59;7404171;19;1804;-43
2023/04/03 05:05:14;;;;;;;;;;;;;;;19.16;66.55;100274.00;7405489;19;1660;-43
2023/04/03 05:07:43;;;;;;;;;;;;;;;19.51;65.40;100259.00;7406539;19;1960;-43
2023/04/03 05:10:12;;;;;;;;;;;;;;;19.78;64.63;100271.56;7406783;19;1676;-43
2023/04/03 05:12:40;;;;;;;;;;;;;;;19.61;64.82;100270.50;7406607;19;1803;-44
2023/04/03 05:15:18;;;;;;;;;;;;;;;19.42;65.54;100285.72;7255179;19;10000536;-44
2023/04/03 05:17:46;;;;;;;;;;;;;;;19.43;65.49;100281.19;7396149;19;2252;-44
2023/04/03 05:20:15;;;;;;;;;;;;;;;19.30;65.54;100281.56;7399812;19;2030;-43
2023/04/03 05:22:43;;;;;;;;;;;;;;;19.40;65.61;100277.00;7401461;19;2190;-44
2023/04/03 05:25:11;;;;;;;;;;;;;;;19.63;65.16;100288.13;7399607;19;1809;-44
2023/04/03 05:27:40;;;;;;;;;;;;;;;19.51;65.22;100277.78;7399021;19;1855;-44
2023/04/03 05:30:09;;;;;;;;;;;;;;;19.46;65.28;100292.47;7400612;19;2017;-44
2023/04/03 05:32:40;;;;;;;;;;;;;;;19.43;65.70;100287.41;7400793;19;1952;-43
2023/04/03 05:35:09;;;;;;;;;;;;;;;19.35;65.63;100295.34;7398845;19;1835;-43
2023/04/03 05:37:37;;;;;;;;;;;;;;;19.43;65.77;100300.81;7399845;19;1840;-43
2023/04/03 05:40:06;;;;;;;;;;;;;;;19.76;64.77;100298.53;7398069;19;1925;-43
2023/04/03 05:42:35;;;;;;;;;;;;;;;20.08;63.51;100305.22;7399786;19;1987;-44
2023/04/03 05:45:03;;;;;;;;;;;;;;;19.85;64.28;100305.66;7401273;19;1663;-44
2023/04/03 05:47:31;;;;;;;;;;;;;;;19.61;65.35;100306.22;7400477;19;2136;-44
2023/04/03 05:50:02;;;;;;;;;;;;;;;19.44;65.29;100321.28;7405883;19;1842;-44
2023/04/03 05:52:32;;;;;;;;;;;;;;;19.38;65.57;100324.56;7402933;19;1679;-44
2023/04/03 05:55:00;;;;;;;;;;;;;;;19.54;65.18;100310.50;7403372;19;1724;-44
2023/04/03 05:57:28;;;;;;;;;;;;;;;20.03;64.51;100323.59;7404876;19;1974;-44
2023/04/03 05:59:57;;;;;;;;;;;;;;;20.07;64.94;100322.31;7391655;19;2053;-44
2023/04/03 06:02:26;;;;;;;;;;;;;;;19.77;65.64;100316.31;7401526;19;1827;-44
2023/04/03 06:04:55;;;;;;;;;;;;;;;19.58;66.28;100329.81;7403316;19;1645;-44
2023/04/03 06:07:28;;;;;;;;;;;;;;;19.48;66.94;100354.00;7402621;19;2025;-44
2023/04/03 06:09:57;;;;;;;;;;;;;;;19.39;66.93;100344.16;7402974;19;1948;-44
2023/04/03 06:12:26;;;;;;;;;;;;;;;19.37;67.52;100344.31;7403919;19;1903;-44
2023/04/03 06:14:54;;;;;;;;;;;;;;;19.79;66.27;100330.41;7403547;19;2168;-44
2023/04/03 06:17:23;;;;;;;;;;;;;;;19.69;66.33;100337.66;7403433;19;2000;-44
2023/04/03 06:19:51;;;;;;;;;;;;;;;19.56;66.74;100348.75;7401938;19;1864;-44
2023/04/03 06:22:21;;;;;;;;;;;;;;;19.50;67.06;100351.16;7403181;19;2099;-44
2023/04/03 06:24:51;;;;;;;;;;;;;;;19.41;67.50;100361.78;7403083;19;1800;-44
2023/04/03 06:27:20;;;;;;;;;;;;;;;19.44;67.90;100364.19;7403676;19;1791;-44
2023/04/03 06:29:48;;;;;;;;;;;;;;;19.36;67.74;100377.50;7404299;19;1065;-44
2023/04/03 06:32:16;;;;;;;;;;;;;;;19.32;67.64;100360.00;7401371;19;2046;-44
2023/04/03 06:34:45;;;;;;;;;;;;;;;19.27;68.41;100373.00;7401844;19;2070;-44
2023/04/03 06:37:13;;;;;;;;;;;;;;;19.33;67.74;100372.41;7401633;19;1801;-44
2023/04/03 06:39:41;;;;;;;;;;;;;;;19.29;67.65;100368.34;7400957;19;1848;-44
2023/04/03 06:42:12;;;;;;;;;;;;;;;19.28;68.20;100370.19;7400700;19;1820;-44
2023/04/03 06:44:41;;;;;;;;;;;;;;;19.25;67.85;100373.13;7402072;19;1941;-44
2023/04/03 06:47:09;;;;;;;;;;;;;;;19.22;68.17;100381.50;7401467;19;1491;-44
2023/04/03 06:49:37;;;;;;;;;;;;;;;19.20;68.44;100378.13;7400430;19;1685;-44
2023/04/03 06:52:07;;;;;;;;;;;;;;;19.17;67.99;100380.22;7402623;19;2097;-44
2023/04/03 06:54:35;;;;;;;;;;;;;;;19.17;68.71;100380.22;7402924;19;2098;-44
2023/04/03 06:57:04;;;;;;;;;;;;;;;19.14;68.13;100378.69;7400763;19;2157;-44
2023/04/03 06:59:35;;;;;;;;;;;;;;;19.16;68.53;100383.88;7394139;19;3708;-45
2023/04/03 07:02:03;;;;;;;;;;;;;;;19.15;68.93;100388.41;7392472;19;2182;-43
2023/04/03 07:04:33;;;;;;;;;;;;;;;19.19;68.87;100388.97;7400838;19;1838;-43
2023/04/03 07:07:01;;;;;;;;;;;;;;;19.14;69.30;100384.06;7400479;19;1571;-42
2023/04/03 07:09:30;;;;;;;;;;;;;;;19.17;68.55;100380.22;7402467;19;1372;-42
2023/04/03 07:11:58;;;;;;;;;;;;;;;19.22;68.37;100396.75;7401117;19;1088;-42
2023/04/03 07:14:26;;;;;;;;;;;;;;;19.24;68.48;100392.91;7400472;19;1930;-42
2023/04/03 07:16:57;;;;;;;;;;;;;;;19.19;68.51;100397.00;7399273;19;1805;-42
2023/04/03 07:19:27;;;;;;;;;;;;;;;19.15;68.82;100395.63;7400566;19;1521;-42
2023/04/03 07:21:56;;;;;;;;;;;;;;;19.07;68.66;100391.81;7398438;19;1886;-43
2023/04/03 07:24:24;;;;;;;;;;;;;;;19.07;68.74;100399.84;7398246;19;1181;-42
2023/04/03 07:26:53;;;;;;;;;;;;;;;19.03;68.41;100392.25;7397247;19;1269;-42
2023/04/03 07:29:22;;;;;;;;;;;;;;;18.96;68.22;100383.09;7400763;19;1770;-43
2023/04/03 07:31:51;;;;;;;;;;;;;;;18.98;67.44;100398.06;7399722;19;1612;-42
2023/04/03 07:34:22;;;;;;;;;;;;;;;18.95;66.59;100400.19;7402645;19;1814;-42
2023/04/03 07:36:50;;;;;;;;;;;;;;;18.99;66.88;100406.94;7402136;19;1621;-43
2023/04/03 07:39:18;;;;;;;;;;;;;;;18.95;67.43;100405.53;7401821;19;1635;-42
2023/04/03 07:41:47;;;;;;;;;;;;;;;18.92;67.05;100395.97;7395961;19;1819;-43
2023/04/03 07:44:15;;;;;;;;;;;;;;;18.92;66.79;100411.16;7397734;19;1707;-43
2023/04/03 07:46:43;;;;;;;;;;;;;;;18.95;66.75;100405.53;7397899;19;1050;-43
2023/04/03 07:49:12;;;;;;;;;;;;;;;18.87;66.91;100406.25;7398415;19;1891;-43
2023/04/03 07:51:42;;;;;;;;;;;;;;;18.84;67.29;100403.84;7399446;19;955;-43
2023/04/03 07:54:11;;;;;;;;;;;;;;;18.78;67.63;100404.38;7401749;19;1843;-43
2023/04/03 07:56:42;;;;;;;;;;;;;;;18.77;67.85;100403.56;7398652;19;1908;-43
2023/04/03 07:59:11;;;;;;;;;;;;;;;18.81;67.73;100405.00;7401297;19;1573;-42
2023/04/03 08:01:39;;;;;;;;;;;;;;;18.82;67.62;100401.34;7399457;19;1856;-42
2023/04/03 08:04:08;;;;;;;;;;;;;;;18.77;68.36;100422.31;7401205;19;1751;-43
2023/04/03 08:06:36;;;;;;;;;;;;;;;18.93;67.67;100416.41;7397643;19;1018;-42
2023/04/03 08:09:08;;;;;;;;;;;;;;;19.78;65.14;100395.81;7396791;19;1055;-42
2023/04/03 08:11:36;;;;;;;;;;;;;;;20.27;63.49;100408.91;7331958;19;12607;-42
2023/04/03 08:14:04;;;;;;;;;;;;;;;20.47;63.07;100404.22;7398473;19;1764;-42
2023/04/03 08:16:33;;;;;;;;;;;;;;;20.05;64.17;100399.44;7398100;19;1855;-42
2023/04/03 08:19:01;;;;;;;;;;;;;;;19.68;65.35;100403.03;7398076;19;1852;-42
2023/04/03 08:21:31;;;;;;;;;;;;;;;19.57;65.67;100416.63;7395382;19;1842;-42
2023/04/03 08:24:00;;;;;;;;;;;;;;;20.00;64.76;100415.19;7396271;19;1118;-41
2023/04/03 08:26:31;;;;;;;;;;;;;;;20.32;64.07;100416.53;7398104;19;1870;-42
2023/04/03 08:28:59;;;;;;;;;;;;;;;20.60;63.25;100412.78;7398703;19;1780;-42
2023/04/03 08:31:28;;;;;;;;;;;;;;;20.82;62.96;100402.56;7396284;19;1055;-42
2023/04/03 08:33:56;;;;;;;;;;;;;;;20.72;62.99;100402.63;7399791;19;1727;-42
2023/04/03 08:36:25;;;;;;;;;;;;;;;20.68;62.96;100400.44;7396764;19;991;-42
2023/04/03 08:38:54;;;;;;;;;;;;;;;20.65;63.41;100396.19;7403921;19;1565;-42
2023/04/03 08:41:30;;;;;;;;;;;;;;;20.65;63.63;100383.63;7400807;19;1843;-41
2023/04/03 08:44:04;;;;;;;;;;;;;;;20.61;63.68;100386.75;7404857;19;1462;-42
2023/04/03 08:46:40;;;;;;;;;;;;;;;20.38;62.74;100383.69;7407292;19;1597;-42
2023/04/03 08:49:13;;;;;;;;;;;;;;;20.41;62.25;100386.03;7406572;19;1816;-42
2023/04/03 08:51:44;;;;;;;;;;;;;;;20.48;62.39;100389.81;7405905;19;1841;-42
2023/04/03 08:54:17;;;;;;;;;;;;;;;20.48;62.37;100379.06;7404730;19;1587;-41
2023/04/03 08:56:47;;;;;;;;;;;;;;;20.52;62.76;100363.50;7403767;19;972;-41
2023/04/03 08:59:21;;;;;;;;;;;;;;;20.62;62.81;100375.84;7402700;19;1122;-42
2023/04/03 09:01:51;;;;;;;;;;;;;;;20.56;62.70;100365.72;7402717;19;1894;-41
2023/04/03 09:04:19;;;;;;;;;;;;;;;20.56;62.93;100375.63;7403006;19;1062;-42
2023/04/03 09:06:49;;;;;;;;;;;;;;;20.63;62.50;100377.56;7403042;19;1042;-42
2023/04/03 09:09:22;;;;;;;;;;;;;;;20.66;62.53;100371.03;7403321;19;1795;-42
2023/04/03 09:12:05;;;;;;;;;;;;;;;20.67;62.66;100367.31;7406011;19;1556;-42
2023/04/03 09:14:39;;;;;;;;;;;;;;;20.68;62.76;100363.66;7403132;19;1019;-42
2023/04/03 09:17:12;;;;;;;;;;;;;;;20.74;62.71;100365.72;7402967;19;995;-42
2023/04/03 09:19:44;;;;;;;;;;;;;;;20.72;62.50;100359.66;7403884;19;1376;-42
2023/04/03 09:22:17;;;;;;;;;;;;;;;20.74;62.46;100359.50;7401919;19;1846;-42
2023/04/03 09:24:48;;;;;;;;;;;;;;;20.24;63.81;100351.00;7407049;19;1403;-42
2023/04/03 09:27:16;;;;;;;;;;;;;;;19.96;64.81;100346.69;7404628;19;1110;-42
2023/04/03 09:29:47;;;;;;;;;;;;;;;19.72;65.47;100352.66;7404876;19;1498;-41
2023/04/03 09:32:23;;;;;;;;;;;;;;;19.63;65.81;100365.06;7406314;19;1397;-42
2023/04/03 09:34:53;;;;;;;;;;;;;;;19.93;64.86;100352.34;7404508;19;1235;-42
2023/04/03 09:37:38;;;;;;;;;;;;;;;20.22;64.26;100361.03;7405142;19;1621;-42
2023/04/03 09:40:07;;;;;;;;;;;;;;;19.93;64.94;100365.78;7405162;19;1523;-42
2023/04/03 09:42:36;;;;;;;;;;;;;;;19.80;65.44;100379.56;7404214;19;1851;-42
2023/04/03 09:45:07;;;;;;;;;;;;;;;19.60;65.91;100351.97;7401661;19;1012;-41
2023/04/03 09:47:38;;;;;;;;;;;;;;;19.82;65.42;100362.31;7401070;19;968;-42
2023/04/03 09:50:27;;;;;;;;;;;;;;;20.16;64.57;100358.97;7402155;19;1136;-41
2023/04/03 09:52:56;;;;;;;;;;;;;;;19.85;65.60;100362.00;7401436;19;1261;-42
2023/04/03 09:55:28;;;;;;;;;;;;;;;19.71;65.98;100353.59;7401666;19;994;-41
2023/04/03 09:57:57;;;;;;;;;;;;;;;19.56;66.29;100366.69;7401394;19;983;-42
2023/04/03 10:00:29;;;;;;;;;;;;;;;19.94;65.45;100372.84;7401627;19;1848;-41
2023/04/03 10:02:58;;;;;;;;;;;;;;;20.21;64.23;100348.63;7404061;19;2182;-42
2023/04/03 10:05:28;;;;;;;;;;;;;;;19.96;65.09;100346.69;7405767;19;1839;-42
2023/04/03 10:08:09;;;;;;;;;;;;;;;19.78;65.95;100363.63;7404865;19;1114;-42
2023/04/03 10:10:37;;;;;;;;;;;;;;;19.60;66.21;100349.28;7402392;19;1916;-42
2023/04/03 10:13:07;;;;;;;;;;;;;;;19.91;65.18;100359.72;7401866;19;1047;-42
2023/04/03 10:15:42;;;;;;;;;;;;;;;20.15;64.71;100359.13;7400491;19;1096;-42
2023/04/03 10:18:16;;;;;;;;;;;;;;;19.91;65.34;100344.44;7400610;19;1110;-42
2023/04/03 10:20:46;;;;;;;;;;;;;;;19.69;65.85;100351.06;7399282;19;1845;-42
2023/04/03 10:23:21;;;;;;;;;;;;;;;19.66;65.85;100359.44;7400098;19;1071;-42
2023/04/03 10:25:56;;;;;;;;;;;;;;;19.99;65.06;100349.06;7400036;19;1095;-42
2023/04/03 10:28:27;;;;;;;;;;;;;;;20.23;64.48;100327.84;7402387;19;1936;-42
2023/04/03 10:31:05;;;;;;;;;;;;;;;19.98;65.10;100328.59;7404523;19;1905;-41
2023/04/03 10:33:39;;;;;;;;;;;;;;;19.72;65.88;100347.28;7404201;19;1473;-42
2023/04/03 10:36:13;;;;;;;;;;;;;;;19.54;66.00;100341.84;7402577;19;1923;-42
2023/04/03 10:38:45;;;;;;;;;;;;;;;19.88;65.01;100339.41;7400433;19;1850;-42
2023/04/03 10:41:19;;;;;;;;;;;;;;;20.10;64.41;100323.84;7400987;19;1882;-42
2023/04/03 10:43:53;;;;;;;;;;;;;;;19.86;65.17;100326.13;7401546;19;1771;-42
2023/04/03 10:46:26;;;;;;;;;;;;;;;19.58;66.21;100322.63;7402053;19;1996;-42
2023/04/03 10:49:05;;;;;;;;;;;;;;;19.56;66.21;100332.66;7401800;19;1768;-42
2023/04/03 10:51:38;;;;;;;;;;;;;;;20.01;65.05;100325.59;7400560;19;1722;-42
2023/04/03 10:54:10;;;;;;;;;;;;;;;20.05;64.69;100329.66;7400264;19;1767;-42
2023/04/03 10:56:39;;;;;;;;;;;;;;;19.61;65.23;100326.81;7402657;19;1512;-42
2023/04/03 10:59:17;;;;;;;;;;;;;;;19.56;65.18;100329.13;7397305;19;1043;-42
2023/04/03 11:01:50;;;;;;;;;;;;;;;19.56;65.20;100339.88;7399464;19;1861;-42
2023/04/03 11:04:20;;;;;;;;;;;;;;;19.57;65.50;100322.75;7399498;19;1043;-42
2023/04/03 11:06:53;;;;;;;;;;;;;;;19.45;65.83;100312.22;7399527;19;1736;-42
2023/04/03 11:09:24;;;;;;;;;;;;;;;19.31;66.22;100296.66;7399070;19;1000;-42
2023/04/03 11:11:54;;;;;;;;;;;;;;;19.25;66.53;100311.47;7399657;19;1707;-42
2023/04/03 11:14:27;;;;;;;;;;;;;;;19.19;66.36;100306.72;7401917;19;1613;-42
2023/04/03 11:17:08;;;;;;;;;;;;;;;19.34;66.22;100303.53;7399900;19;1454;-42
2023/04/03 11:19:39;;;;;;;;;;;;;;;19.25;66.81;100299.91;7398489;19;1278;-42
2023/04/03 11:22:11;;;;;;;;;;;;;;;19.23;66.72;100294.69;7397869;19;1852;-42
2023/04/03 11:24:41;;;;;;;;;;;;;;;19.15;67.20;100289.25;7399026;19;954;-42
2023/04/03 11:27:14;;;;;;;;;;;;;;;18.95;67.10;100296.53;7400829;19;1849;-42
2023/04/03 11:29:43;;;;;;;;;;;;;;;18.88;67.28;100292.75;7398500;19;1833;-42
2023/04/03 11:32:23;;;;;;;;;;;;;;;18.82;67.31;100285.28;7402408;19;1880;-42
2023/04/03 11:34:53;;;;;;;;;;;;;;;18.88;67.52;100277.53;7401066;19;1879;-42
2023/04/03 11:37:26;;;;;;;;;;;;;;;18.83;67.60;100278.94;7402448;19;2108;-42
2023/04/03 11:39:57;;;;;;;;;;;;;;;18.93;67.12;100282.44;7400836;19;1882;-42
2023/04/03 11:42:30;;;;;;;;;;;;;;;18.99;66.75;100279.16;7401041;19;1853;-42
2023/04/03 11:45:13;;;;;;;;;;;;;;;18.91;67.43;100281.72;7397659;19;1019;-42
2023/04/03 11:47:51;;;;;;;;;;;;;;;18.87;67.39;100281.16;7397470;19;1799;-42
2023/04/03 11:50:50;;;;;;;;;;;;;;;18.77;67.43;100260.75;7397281;19;1044;-42
2023/04/03 11:53:32;;;;;;;;;;;;;;;18.70;67.87;100260.47;7398034;19;1746;-42
2023/04/03 11:56:02;;;;;;;;;;;;;;;18.66;68.18;100267.97;7397553;19;976;-42
2023/04/03 11:58:31;;;;;;;;;;;;;;;18.63;68.35;100254.84;7397450;19;1154;-42
2023/04/03 12:01:02;;;;;;;;;;;;;;;18.59;68.34;100239.25;7397574;19;1018;-42
2023/04/03 12:03:55;;;;;;;;;;;;;;;18.59;68.21;100261.50;7397028;19;1063;-42
2023/04/03 12:06:38;;;;;;;;;;;;;;;18.55;68.29;100251.22;7396895;19;1039;-42
2023/04/03 12:09:25;;;;;;;;;;;;;;;18.53;68.53;100245.19;7397505;19;1101;-42
2023/04/03 12:11:54;;;;;;;;;;;;;;;18.67;67.72;100229.47;7399072;19;1731;-43
2023/04/03 12:14:25;;;;;;;;;;;;;;;19.05;66.88;100240.22;7399898;19;1610;-42
2023/04/03 12:16:57;;;;;;;;;;;;;;;19.96;64.35;100242.03;7396586;19;3755;-43
2023/04/03 12:19:36;;;;;;;;;;;;;;;20.51;62.94;100227.50;7396815;19;1633;-43
2023/04/03 12:22:22;;;;;;;;;;;;;;;20.61;62.73;100237.19;7398731;19;1861;-43
2023/04/03 12:24:54;;;;;;;;;;;;;;;20.09;63.91;100231.72;7400092;19;1639;-43
2023/04/03 12:27:32;;;;;;;;;;;;;;;19.95;64.80;100248.38;7399540;19;1694;-43
2023/04/03 12:30:04;;;;;;;;;;;;;;;20.28;63.79;100228.03;7398891;19;2009;-43
2023/04/03 12:32:38;;;;;;;;;;;;;;;20.37;63.42;100228.91;7399051;19;1716;-43
2023/04/03 12:35:16;;;;;;;;;;;;;;;20.61;62.63;100228.25;7398657;19;1612;-43
2023/04/03 12:37:51;;;;;;;;;;;;;;;20.77;62.53;100214.06;7399854;19;1680;-43
2023/04/03 12:40:28;;;;;;;;;;;;;;;20.92;62.01;100222.38;7398563;19;1836;-43
2023/04/03 12:43:10;;;;;;;;;;;;;;;21.06;61.41;100222.59;7398085;19;1922;-43
2023/04/03 12:45:46;;;;;;;;;;;;;;;21.09;61.23;100231.34;7395695;19;963;-43
2023/04/03 12:48:17;;;;;;;;;;;;;;;20.99;61.82;100237.69;7394899;19;1040;-43
2023/04/03 12:50:48;;;;;;;;;;;;;;;20.95;61.98;100230.09;7397390;19;1538;-43
2023/04/03 12:53:19;;;;;;;;;;;;;;;20.96;62.05;100238.00;7396184;19;1521;-43
2023/04/03 12:55:50;;;;;;;;;;;;;;;21.02;61.76;100245.44;7399810;19;1787;-43
2023/04/03 12:58:23;;;;;;;;;;;;;;;21.05;61.89;100247.81;7395250;19;971;-43
2023/04/03 13:01:01;;;;;;;;;;;;;;;21.16;61.71;100233.22;7398288;19;1529;-42
2023/04/03 13:03:29;;;;;;;;;;;;;;;21.19;61.32;100232.06;7397882;19;1861;-42
2023/04/03 13:06:00;;;;;;;;;;;;;;;21.21;61.30;100232.75;7396012;19;2036;-43